This is the latest recevied weather packets stored in our database for station/object EA4IAJ-12. If no packets are shown the sender has not sent any weather packets the latest 10 day(s).
| Time | Temp. | Humidity | Pressure | Rain* | Wind** | Luminosity | Snow |
|---|---|---|---|---|---|---|---|
| 1787911582 | 28.89° C | 100% | 1057.9 hPa | - | - | - | - |
| 1787910694 | 27.22° C | 100% | 1051.9 hPa | - | - | - | - |
| 1787909793 | 29.44° C | 100% | 1063 hPa | - | - | - | - |
| 1787908892 | 28.89° C | 100% | 1062 hPa | - | - | - | - |
| 1787907993 | 29.44° C | 100% | 1064.9 hPa | - | - | - | - |
| 1787907091 | 27.78° C | 100% | 1057.6 hPa | - | - | - | - |
| 1787906191 | 24.44° C | 100% | 1043.8 hPa | - | - | - | - |
| 1787905290 | 24.44° C | 100% | 1043.3 hPa | - | - | - | - |
| 1787904390 | 21.11° C | 100% | 1029.8 hPa | - | - | - | - |
| 1787903489 | 20° C | 100% | 1025.7 hPa | - | - | - | - |
| 1787902588 | 15° C | 100% | 1003.3 hPa | - | - | - | - |
| 1787901688 | 13.89° C | 100% | 998.3 hPa | - | - | - | - |
| 1787900788 | 13.33° C | 100% | 995.9 hPa | - | - | - | - |
| 1787899887 | 12.78° C | 100% | 994.4 hPa | - | - | - | - |
| 1787898987 | 12.22° C | 100% | 993 hPa | - | - | - | - |
| 1787898086 | 11.67° C | 100% | 989.5 hPa | - | - | - | - |
| 1787897186 | 11.11° C | 100% | 988.2 hPa | - | - | - | - |
| 1787896285 | 11.67° C | 100% | 988.3 hPa | - | - | - | - |
| 1787895384 | 11.67° C | 100% | 988.5 hPa | - | - | - | - |
| 1787894484 | 11.67° C | 100% | 988.7 hPa | - | - | - | - |
| 1787893584 | 11.67° C | 100% | 988.6 hPa | - | - | - | - |
| 1787892683 | 11.67° C | 100% | 987.5 hPa | - | - | - | - |
| 1787891782 | 11.67° C | 100% | 988.2 hPa | - | - | - | - |
| 1787890882 | 12.22° C | 100% | 989.1 hPa | - | - | - | - |
| 1787889981 | 12.22° C | 100% | 989.1 hPa | - | - | - | - |
* Rain since midnight (hover to see other rain measurements)
** Current wind speed in m/s (hover to see current wind gust speed)